Flight Track Log - Related Links

Times and Time Zones

All times are in EDT time to prevent confusion due to time zone crossing. See the RPA3396 flight status page for this flight to view local times or setup timezone preferences in your user account.

Time Position Orientation Groundspeed Altitude Reporting Facility
EDT Latitude Longitude Course Direction KTS MPH feet Rate Location/Type
Fri 03:30:49 PM 38.8667 -77.0500 47° Northeast 158 182 900  Level Potomac TRACON
Fri 03:31:49 PM 38.9167 -77.0833 333° Northwest 208 239 2,500 2,217 Climbing Potomac TRACON
Fri 03:33:00 PM 39.2037 -76.7635 38° Northeast  Level Estimated
Fri 03:33:53 PM 39.0083 -77.0769 North 208 239 7,700  Level Washington Center
Fri 03:34:00 PM 39.2916 -76.6946 83° East  Level Estimated
Fri 03:34:53 PM 39.0264 -76.9811 76° East 225 259 10,700  Level Washington Center
Fri 03:35:00 PM 39.3794 -76.6254 81° East  Level Estimated
Fri 03:35:51 PM 39.0442 -76.8772 78° East 249 287 13,400  Level Washington Center
Fri 03:36:00 PM 39.4672 -76.5561 47° Northeast  Level Estimated
Fri 03:36:52 PM 39.0619 -76.7678 78° East 284 327 15,500  Level Washington Center
Fri 03:37:52 PM 39.0817 -76.6425 78° East 326 375 17,300 1,934 Climbing Washington Center
Fri 03:38:53 PM 39.1036 -76.5117 78° East 357 411 19,400 2,017 Climbing Washington Center
Fri 03:39:51 PM 39.1256 -76.3756 78° East 371 427 21,300 1,815 Climbing Washington Center
Fri 03:40:52 PM 39.1492 -76.2367 78° East 384 442 23,000 567 Climbing Washington Center
Fri 03:42:00 PM 39.1636 -76.0806 83° East  Level FlightAware Approximate
Fri 03:42:51 PM 39.1836 -75.9639 83° East 396 456 23,000  Level Washington Center
Fri 03:43:51 PM 39.2236 -75.8353 68° East 401 461 23,000 400 Level Washington Center
Fri 03:44:51 PM 39.3008 -75.7364 45° Northeast 380 437 23,800 1,289 Climbing Washington Center
Fri 03:45:52 PM 39.3822 -75.6344 44° Northeast 385 443 25,600 1,550 Climbing Washington Center
Fri 03:46:51 PM 39.4614 -75.5350 44° Northeast 390 449 26,900 1,200 Climbing Washington Center
Fri 03:47:52 PM 39.5425 -75.4275 46° Northeast 395 455 28,000 1,033 Climbing Washington Center
Fri 03:48:53 PM 39.6258 -75.3194 45° Northeast 411 473 29,000 426 Climbing Washington Center
Fri 03:50:13 PM 39.7467 -75.1475 48° Northeast 413 475 29,000  Level New York Center
Fri 03:51:13 PM 39.8383 -75.0342 43° Northeast 441 507 29,000  Level New York Center
Fri 03:52:14 PM 39.9300 -74.9208 43° Northeast 447 514 29,000  Level New York Center
Fri 03:53:12 PM 40.0236 -74.8069 43° Northeast 447 514 29,000  Level New York Center
Fri 03:54:13 PM 40.1192 -74.6986 41° Northeast 447 514 29,000  Level New York Center
Fri 03:55:13 PM 40.2083 -74.5814 45° Northeast 447 514 29,000  Level New York Center
Fri 03:56:14 PM 40.2994 -74.4694 43° Northeast 447 514 29,000  Level New York Center
Fri 03:57:12 PM 40.3903 -74.3597 43° Northeast 447 514 29,000  Level New York Center
Fri 03:58:13 PM 40.4792 -74.2472 44° Northeast 447 514 29,000 -677 Level New York Center
Fri 04:00:18 PM 40.6636 -74.0214 43° Northeast 455 524 26,900 -1,402 Descending Boston Center
Fri 04:01:17 PM 40.7464 -73.9194 43° Northeast 430 495 24,700 -1,462 Descending Boston Center
Fri 04:02:17 PM 40.8311 -73.8197 42° Northeast 405 466 24,000 -496 Descending Boston Center
Fri 04:03:18 PM 40.9092 -73.7225 43° Northeast 395 455 23,700 -496 Descending Boston Center
Fri 04:04:18 PM 40.9769 -73.6306 46° Northeast 390 449 23,000 -353 Descending Boston Center
Fri 04:05:17 PM 41.0633 -73.5331 40° Northeast 373 429 23,000 -202 Level Boston Center
Fri 04:06:17 PM 41.1392 -73.4406 43° Northeast 368 423 22,600 -942 Descending Boston Center
Fri 04:07:18 PM 41.2131 -73.3478 43° Northeast 368 423 21,100 -1,513 Descending Boston Center
Fri 04:08:16 PM 41.3050 -73.3022 20° North 351 404 19,600 -1,059 Descending Boston Center
Fri 04:09:17 PM 41.4008 -73.3283 348° North 334 384 19,000 -639 Descending Boston Center
Fri 04:10:18 PM 41.4964 -73.3547 348° North 334 384 18,300 -496 Descending Boston Center
Fri 04:11:18 PM 41.5961 -73.3811 349° North 360 414 18,000 -712 Descending Boston Center
Fri 04:12:16 PM 41.6939 -73.4103 347° North 367 422 16,900 -1,627 Descending Boston Center
Fri 04:13:16 PM 41.7917 -73.4369 349° North 361 415 14,800 -1,835 Descending Boston Center
Fri 04:14:17 PM 41.8853 -73.4636 348° North 355 409 13,200 -1,689 Descending Boston Center
Fri 04:14:59 PM 41.9475 -73.4842 346° North 337 388 11,900 -1,967 Descending Boston Center
Fri 04:15:18 PM 41.9744 -73.4900 351° North 342 394 11,200 -608 Descending Boston Center
Fri 04:16:18 PM 42.0619 -73.5139 349° North 323 372 11,100 -102 Descending Boston Center
Fri 04:17:16 PM 42.1431 -73.5319 351° North 310 357 11,000 -98 Descending Boston Center
Fri 04:17:19 PM 42.1408 -73.5319 180° South 279 321 11,000 -667 Level Boston Center
Fri 04:18:19 PM 42.2156 -73.5614 344° North 270 311 10,300 -1,271 Descending Boston Center
Fri 04:19:17 PM 42.2883 -73.5936 342° North 275 316 8,500 -1,869 Descending Boston Center
Fri 04:19:20 PM 42.2861 -73.5936 180° South 272 313 8,400 -1,905 Descending Boston Center
Fri 04:20:20 PM 42.3564 -73.6511 329° Northwest 270 311 6,500 -1,795 Descending Boston Center
Fri 04:21:17 PM 42.4164 -73.6914 334° Northwest 262 302 4,900 -1,700 Descending Boston Center
Fri 04:21:20 PM 42.4206 -73.6972 314° West 266 306 4,800 -1,279 Descending Boston Center
Fri 04:22:18 PM 42.4703 -73.7319 333° Northwest 254 292 3,600 -1,377 Descending Boston Center
Fri 04:22:21 PM 42.4806 -73.7436 320° Northwest 248 285 3,400 -563 Descending Boston Center
Fri 04:23:22 PM 42.5300 -73.7811 331° Northwest 198 228 3,000 -198 Descending Boston Center
Fri 04:24:22 PM 42.5797 -73.8019 343° North 187 215 3,000 -261 Level Boston Center
Fri 04:25:17 PM 42.6256 -73.8031 359° North 177 204 2,500 -261 Descending Boston Center
Fri 04:26:17 PM 42.6672 -73.8236 340° North 177 204 2,500 -909 Level Boston Center
Fri 04:26:23 PM 42.6736 -73.8039 66° East 162 186 1,500 -1,522 Descending Boston Center
Fri 04:27:24 PM 42.7111 -73.8078 356° North 130 150 800 -689 Descending Boston Center

Login

Don't have an account? Register now (free) for customized features, flight alerts, and more!